X  Κλείσε Στοιχεία αεροπορικών μετεωρολογικών δεδομένων METAR     LGRX Patras Araxos Agamemnon Airport
Θερμοκρασία
57°F Θερμοκρασία
54°F Σημείο δρόσου
88% Υγρασία



Άνεμος
6 MPH
10 KM/H
3 M/S
5 KTS



190°
N
Τρέχουσες Συνθήκες

Μερικώς Νεφελώδης Μερικώς Νεφελώδης
Πίεση 1018.96 (hPa) - 30.09 (inHg)
Ορατότητα 6 (μίλια) - 9.7 (km)
Aεροδρόμιο
Κωδικός Αεροδρομίου LGRX

Τοποθεσία: Patras Araxos Agamemnon Airport
Απόσταση: 108 (mi)

Metar:
LGRX 230650Z 19005KT 9999 FEW015 SCT030 14/12 Q1019 RMK SCT070 BLU

ώρα: 23-02-2024 08:50 EET